Garfield, KY (40140)

3:55 AM CDT on July 27, 2016 (GMT -0500)
Old Weldon | | Change Station

Elev 636 ft 37.97 °N, 86.13 °W | Updated 7 seconds ago

Clear
Clear
72.9 °F
Feels Like 72.9 °F
N
0.0
Wind Variable Wind from NNW
Gusts 0.0 mph

Today
High -- | Low -- °F
--% Chance of Precip.
Yesterday
High -- | Low -- °F
Precip. -- in
Pressure 29.97 in
Visibility 5.0 miles
Clouds Clear
Dew Point 72 °F
Humidity 98%
Rainfall 0.00 in
Snow Depth Not available.
5:44 AM 7:58 PM
Last Quarter, 45% visible
METAR KFTK 270758Z AUTO 01001KT 5SM R18/5000FT BR CLR 22/22 A2998 RMK AO2 SLP147 T02240220
Pressure 29.97 in
Visibility 5.0 miles
Clouds Clear
Dew Point 72 °F
Humidity 98%
Rainfall 0.00 in
Snow Depth Not available.
5:44 AM 7:58 PM
Last Quarter, 45% visible
METAR KFTK 270758Z AUTO 01001KT 5SM R18/5000FT BR CLR 22/22 A2998 RMK AO2 SLP147 T02240220

10-Day Weather Forecast

Almanac

Astronomy

Jul. 27, 2016 Rise Set
Actual Time
Civil Twilight
Nautical Twilight
Astronomical Twilight
Moon
Length of Visible Light
Length of Day
Tomorrow will be .
, % of the Moon is Illuminated

Today's Extremes

State Highs State Lows

Community

WunderPhotos

Upload Photos

1,927,818 photos uploaded!

WunderBlog® & News

Nearby

Air Quality

  Air Quality AQ Index Pollutant
Not available.

Snow Depth

Station Depth Elevation

Earthquake Activity

City Distance Mag. Time & Date
Minimum magnitude displayed is 2.5.

Coastal Water Temperatures

Place Temperature

Stations

Nearby Weather Stations

Station Location Temp. Windchill Dew Point Humidity Wind Precip. Elev Updated Type
                   

Watches & Warnings

There are currently no watches in effect.